Aérodrome :
LOGIN :

S'inscrire | Disclaimer

   EN    FR    IT 

 










Légende :    VFR   VFR Marginal   IFR   IFR Intensif   IFR Très Intensif
Visi : 
Plafond : 
>= 8 km
>= 3000ft
5 à 8 km
1000 à 3000 ft
1500m à 5 km
500 à 1000 ft
800 à 1500m
200 à 500 ft
< 800m
< 200 ft
Symboles :   Orages  Brouillard  Fortes neiges  Fortes précipitations  Vent > 20 kt
SIGMETs :   Divers  Orages  Givrage  Turbulence  Onde Orograph.  Cendres Volcan.







- Altitude de l'aérodrome : 13 ft
- Code IATA : CEQ
- Voir les cartes d'approche


LFMD - Cannes Mandelieu

DERNIER METAR :
  • 252000Z AUTO VRB02KT 9999 BKN014 BKN019 OVC140 15/12 Q1010 NOSIG

METARs EXPIRÉS :
  • 251930Z AUTO VRB02KT 9999 BKN014 BKN150 15/12 Q1010 NOSIG
  • 251900Z AUTO 16004KT 130V190 CAVOK 15/12 Q1010 BECMG BKN014
  • 251830Z AUTO 17003KT CAVOK 15/12 Q1010 BECMG BKN014
  • 251800Z AUTO VRB03KT CAVOK 15/12 Q1010 NOSIG
  • 251730Z AUTO VRB02KT CAVOK 15/12 Q1010 NOSIG

TAF TAF LFMD
Valide du 25 à 15h jusqu'au 26 à 15h UTC


251400Z 2515/2615 16008KT CAVOK
BECMG 2520/2523 VRB04KT BKN014
TEMPO 2604/2614 4000 RA FEW010 BKN030
BECMG 2614/2615 22010KT
ATIS : +33 4 93 48 73 23
Pas de NOTAMs connus pour ce terrain.



MET'MAP, la Météo Aéronautique d'un coup d'oeil ! - Copyright ORBIFLY Décembre 2007 - Disclaimer

ORBIFLY MET'MAP TEAM :

Programmation & Développement : Alexandra Zaïnal
Conception & Développement : Baudouin d'Aumeries
Co-Programmation & Développement : Marc-Olivier Méhu
Soutien technique & logistique : Manuel Goepfert

Contact : metmap@orbifly.com




SOURCES & CREDITS :

   NOAA